sensor_id;sensor_type;location;lat;lon;timestamp;P1;durP1;ratioP1;P2;durP2;ratioP2
11927;SDS011;6023;47.070;15.126;2023-05-23T00:01:23;7.97;;;7.13;;
11927;SDS011;6023;47.070;15.126;2023-05-23T00:03:52;9.97;;;7.80;;
11927;SDS011;6023;47.070;15.126;2023-05-23T00:06:22;8.40;;;7.00;;
11927;SDS011;6023;47.070;15.126;2023-05-23T00:08:50;8.40;;;6.87;;
11927;SDS011;6023;47.070;15.126;2023-05-23T00:11:20;8.00;;;7.20;;
11927;SDS011;6023;47.070;15.126;2023-05-23T00:13:52;8.20;;;7.13;;
11927;SDS011;6023;47.070;15.126;2023-05-23T00:16:21;7.13;;;6.27;;
11927;SDS011;6023;47.070;15.126;2023-05-23T00:18:49;7.30;;;6.50;;
11927;SDS011;6023;47.070;15.126;2023-05-23T00:21:19;8.13;;;7.00;;
11927;SDS011;6023;47.070;15.126;2023-05-23T00:23:47;8.00;;;6.97;;
11927;SDS011;6023;47.070;15.126;2023-05-23T00:26:16;7.97;;;7.17;;
11927;SDS011;6023;47.070;15.126;2023-05-23T00:28:46;7.87;;;6.97;;
11927;SDS011;6023;47.070;15.126;2023-05-23T00:31:14;7.93;;;7.03;;
11927;SDS011;6023;47.070;15.126;2023-05-23T00:33:43;8.67;;;7.07;;
11927;SDS011;6023;47.070;15.126;2023-05-23T00:36:12;7.90;;;7.10;;
11927;SDS011;6023;47.070;15.126;2023-05-23T00:38:40;8.80;;;7.53;;
11927;SDS011;6023;47.070;15.126;2023-05-23T00:41:11;8.90;;;7.60;;
11927;SDS011;6023;47.070;15.126;2023-05-23T00:43:40;8.77;;;7.87;;
11927;SDS011;6023;47.070;15.126;2023-05-23T00:46:10;11.33;;;8.33;;
11927;SDS011;6023;47.070;15.126;2023-05-23T00:48:38;9.87;;;8.27;;
11927;SDS011;6023;47.070;15.126;2023-05-23T00:51:07;8.37;;;7.00;;
11927;SDS011;6023;47.070;15.126;2023-05-23T00:53:35;8.17;;;7.37;;
11927;SDS011;6023;47.070;15.126;2023-05-23T00:56:04;7.43;;;6.63;;
11927;SDS011;6023;47.070;15.126;2023-05-23T00:58:33;8.80;;;6.97;;
11927;SDS011;6023;47.070;15.126;2023-05-23T01:01:01;7.83;;;7.03;;
11927;SDS011;6023;47.070;15.126;2023-05-23T01:03:31;8.43;;;7.10;;
11927;SDS011;6023;47.070;15.126;2023-05-23T01:06:00;8.20;;;7.40;;
11927;SDS011;6023;47.070;15.126;2023-05-23T01:08:29;8.13;;;6.90;;
11927;SDS011;6023;47.070;15.126;2023-05-23T01:10:57;8.10;;;7.23;;
11927;SDS011;6023;47.070;15.126;2023-05-23T01:13:33;8.20;;;7.03;;
11927;SDS011;6023;47.070;15.126;2023-05-23T01:16:09;7.37;;;6.57;;
11927;SDS011;6023;47.070;15.126;2023-05-23T01:18:44;8.40;;;7.50;;
11927;SDS011;6023;47.070;15.126;2023-05-23T01:21:20;11.57;;;7.90;;
11927;SDS011;6023;47.070;15.126;2023-05-23T01:26:56;10.20;;;7.93;;
11927;SDS011;6023;47.070;15.126;2023-05-23T01:29:31;8.17;;;6.90;;
11927;SDS011;6023;47.070;15.126;2023-05-23T01:32:01;8.50;;;7.60;;
11927;SDS011;6023;47.070;15.126;2023-05-23T01:34:30;7.83;;;7.10;;
11927;SDS011;6023;47.070;15.126;2023-05-23T01:37:02;8.33;;;7.33;;
11927;SDS011;6023;47.070;15.126;2023-05-23T01:39:35;8.47;;;7.47;;
11927;SDS011;6023;47.070;15.126;2023-05-23T01:42:04;8.03;;;7.23;;
11927;SDS011;6023;47.070;15.126;2023-05-23T01:44:34;8.27;;;6.80;;
11927;SDS011;6023;47.070;15.126;2023-05-23T01:47:03;8.00;;;7.20;;
11927;SDS011;6023;47.070;15.126;2023-05-23T01:49:34;9.23;;;7.63;;
11927;SDS011;6023;47.070;15.126;2023-05-23T01:52:04;9.33;;;7.47;;
11927;SDS011;6023;47.070;15.126;2023-05-23T01:54:36;8.80;;;7.90;;
11927;SDS011;6023;47.070;15.126;2023-05-23T01:57:08;10.90;;;8.43;;
11927;SDS011;6023;47.070;15.126;2023-05-23T01:59:39;9.00;;;7.57;;
11927;SDS011;6023;47.070;15.126;2023-05-23T02:02:07;8.90;;;8.10;;
11927;SDS011;6023;47.070;15.126;2023-05-23T02:04:36;8.93;;;7.93;;
11927;SDS011;6023;47.070;15.126;2023-05-23T02:07:04;9.70;;;7.67;;
11927;SDS011;6023;47.070;15.126;2023-05-23T02:09:33;8.73;;;7.80;;
11927;SDS011;6023;47.070;15.126;2023-05-23T02:12:01;9.03;;;7.73;;
11927;SDS011;6023;47.070;15.126;2023-05-23T02:14:30;8.83;;;7.93;;
11927;SDS011;6023;47.070;15.126;2023-05-23T02:17:00;7.83;;;7.03;;
11927;SDS011;6023;47.070;15.126;2023-05-23T02:19:30;10.30;;;7.00;;
11927;SDS011;6023;47.070;15.126;2023-05-23T02:21:58;8.00;;;7.20;;
11927;SDS011;6023;47.070;15.126;2023-05-23T02:24:27;7.00;;;6.37;;
11927;SDS011;6023;47.070;15.126;2023-05-23T02:26:55;7.17;;;6.47;;
11927;SDS011;6023;47.070;15.126;2023-05-23T02:29:24;8.20;;;7.00;;
11927;SDS011;6023;47.070;15.126;2023-05-23T02:31:52;8.47;;;7.23;;
11927;SDS011;6023;47.070;15.126;2023-05-23T02:34:22;8.53;;;7.60;;
11927;SDS011;6023;47.070;15.126;2023-05-23T02:36:50;10.07;;;7.60;;
11927;SDS011;6023;47.070;15.126;2023-05-23T02:39:19;8.00;;;7.07;;
11927;SDS011;6023;47.070;15.126;2023-05-23T02:41:48;11.33;;;7.50;;
11927;SDS011;6023;47.070;15.126;2023-05-23T02:44:16;8.77;;;7.20;;
11927;SDS011;6023;47.070;15.126;2023-05-23T02:46:45;7.77;;;7.07;;
11927;SDS011;6023;47.070;15.126;2023-05-23T02:49:13;8.00;;;7.20;;
11927;SDS011;6023;47.070;15.126;2023-05-23T02:51:43;10.60;;;7.70;;
11927;SDS011;6023;47.070;15.126;2023-05-23T02:54:12;10.07;;;6.83;;
11927;SDS011;6023;47.070;15.126;2023-05-23T02:56:40;8.43;;;6.80;;
11927;SDS011;6023;47.070;15.126;2023-05-23T02:59:09;9.10;;;7.97;;
11927;SDS011;6023;47.070;15.126;2023-05-23T03:01:38;8.30;;;7.00;;
11927;SDS011;6023;47.070;15.126;2023-05-23T03:04:06;10.47;;;7.80;;
11927;SDS011;6023;47.070;15.126;2023-05-23T03:06:35;8.37;;;7.20;;
11927;SDS011;6023;47.070;15.126;2023-05-23T03:09:05;8.07;;;7.27;;
11927;SDS011;6023;47.070;15.126;2023-05-23T03:11:33;8.40;;;7.60;;
11927;SDS011;6023;47.070;15.126;2023-05-23T03:14:02;8.50;;;7.17;;
11927;SDS011;6023;47.070;15.126;2023-05-23T03:16:30;8.63;;;7.73;;
11927;SDS011;6023;47.070;15.126;2023-05-23T03:18:59;8.67;;;7.70;;
11927;SDS011;6023;47.070;15.126;2023-05-23T03:21:28;8.53;;;7.63;;
11927;SDS011;6023;47.070;15.126;2023-05-23T03:23:56;10.63;;;7.33;;
11927;SDS011;6023;47.070;15.126;2023-05-23T03:26:26;8.17;;;7.37;;
11927;SDS011;6023;47.070;15.126;2023-05-23T03:28:55;9.03;;;7.30;;
11927;SDS011;6023;47.070;15.126;2023-05-23T03:31:24;8.50;;;7.57;;
11927;SDS011;6023;47.070;15.126;2023-05-23T03:33:52;9.63;;;7.70;;
11927;SDS011;6023;47.070;15.126;2023-05-23T03:36:20;10.27;;;8.07;;
11927;SDS011;6023;47.070;15.126;2023-05-23T03:38:51;9.33;;;7.97;;
11927;SDS011;6023;47.070;15.126;2023-05-23T03:41:20;8.27;;;7.10;;
11927;SDS011;6023;47.070;15.126;2023-05-23T03:43:50;7.80;;;7.00;;
11927;SDS011;6023;47.070;15.126;2023-05-23T03:46:18;7.60;;;6.60;;
11927;SDS011;6023;47.070;15.126;2023-05-23T03:48:47;7.97;;;7.17;;
11927;SDS011;6023;47.070;15.126;2023-05-23T03:51:17;8.77;;;7.27;;
11927;SDS011;6023;47.070;15.126;2023-05-23T03:53:45;8.27;;;7.30;;
11927;SDS011;6023;47.070;15.126;2023-05-23T03:56:14;8.80;;;6.50;;
11927;SDS011;6023;47.070;15.126;2023-05-23T03:58:42;9.27;;;7.53;;
11927;SDS011;6023;47.070;15.126;2023-05-23T04:01:13;8.60;;;7.63;;
11927;SDS011;6023;47.070;15.126;2023-05-23T04:03:41;8.90;;;6.97;;
11927;SDS011;6023;47.070;15.126;2023-05-23T04:06:10;11.70;;;7.00;;
11927;SDS011;6023;47.070;15.126;2023-05-23T04:08:40;7.77;;;6.80;;
11927;SDS011;6023;47.070;15.126;2023-05-23T04:11:09;7.80;;;7.07;;
11927;SDS011;6023;47.070;15.126;2023-05-23T04:13:37;7.60;;;6.83;;
11927;SDS011;6023;47.070;15.126;2023-05-23T04:16:06;8.53;;;7.00;;
11927;SDS011;6023;47.070;15.126;2023-05-23T04:18:36;8.70;;;7.03;;
11927;SDS011;6023;47.070;15.126;2023-05-23T04:21:05;7.77;;;6.70;;
11927;SDS011;6023;47.070;15.126;2023-05-23T04:23:33;7.20;;;6.37;;
11927;SDS011;6023;47.070;15.126;2023-05-23T04:26:02;8.67;;;7.50;;
11927;SDS011;6023;47.070;15.126;2023-05-23T04:28:31;8.97;;;7.33;;
11927;SDS011;6023;47.070;15.126;2023-05-23T04:31:01;8.97;;;7.50;;
11927;SDS011;6023;47.070;15.126;2023-05-23T04:33:30;10.10;;;8.10;;
11927;SDS011;6023;47.070;15.126;2023-05-23T04:36:01;8.80;;;7.90;;
11927;SDS011;6023;47.070;15.126;2023-05-23T04:38:30;9.07;;;7.37;;
11927;SDS011;6023;47.070;15.126;2023-05-23T04:40:59;10.30;;;7.90;;
11927;SDS011;6023;47.070;15.126;2023-05-23T04:43:29;8.73;;;7.23;;
11927;SDS011;6023;47.070;15.126;2023-05-23T04:45:59;8.13;;;6.73;;
11927;SDS011;6023;47.070;15.126;2023-05-23T04:48:27;9.57;;;7.67;;
11927;SDS011;6023;47.070;15.126;2023-05-23T04:50:57;8.00;;;7.20;;
11927;SDS011;6023;47.070;15.126;2023-05-23T04:53:29;7.60;;;6.40;;
11927;SDS011;6023;47.070;15.126;2023-05-23T04:55:57;8.97;;;7.27;;
11927;SDS011;6023;47.070;15.126;2023-05-23T04:58:26;8.80;;;7.37;;
11927;SDS011;6023;47.070;15.126;2023-05-23T05:00:55;8.77;;;7.33;;
11927;SDS011;6023;47.070;15.126;2023-05-23T05:03:23;8.00;;;7.20;;
11927;SDS011;6023;47.070;15.126;2023-05-23T05:05:52;8.17;;;7.07;;
11927;SDS011;6023;47.070;15.126;2023-05-23T05:08:20;8.17;;;7.37;;
11927;SDS011;6023;47.070;15.126;2023-05-23T05:10:50;9.23;;;7.27;;
11927;SDS011;6023;47.070;15.126;2023-05-23T05:13:19;7.17;;;6.47;;
11927;SDS011;6023;47.070;15.126;2023-05-23T05:15:47;7.90;;;6.60;;
11927;SDS011;6023;47.070;15.126;2023-05-23T05:18:16;9.03;;;6.80;;
11927;SDS011;6023;47.070;15.126;2023-05-23T05:20:44;8.97;;;6.73;;
11927;SDS011;6023;47.070;15.126;2023-05-23T05:23:13;8.07;;;6.83;;
11927;SDS011;6023;47.070;15.126;2023-05-23T05:25:41;8.63;;;6.70;;
11927;SDS011;6023;47.070;15.126;2023-05-23T05:28:11;7.20;;;6.43;;
11927;SDS011;6023;47.070;15.126;2023-05-23T05:30:40;8.13;;;6.67;;
11927;SDS011;6023;47.070;15.126;2023-05-23T05:33:09;8.23;;;6.30;;
11927;SDS011;6023;47.070;15.126;2023-05-23T05:35:37;9.33;;;6.50;;
11927;SDS011;6023;47.070;15.126;2023-05-23T05:38:06;8.20;;;6.40;;
11927;SDS011;6023;47.070;15.126;2023-05-23T05:40:36;9.03;;;6.53;;
11927;SDS011;6023;47.070;15.126;2023-05-23T05:43:05;9.47;;;6.33;;
11927;SDS011;6023;47.070;15.126;2023-05-23T05:45:35;7.03;;;6.00;;
11927;SDS011;6023;47.070;15.126;2023-05-23T05:48:04;7.10;;;6.20;;
11927;SDS011;6023;47.070;15.126;2023-05-23T05:50:33;9.17;;;6.30;;
11927;SDS011;6023;47.070;15.126;2023-05-23T05:53:02;8.63;;;6.00;;
11927;SDS011;6023;47.070;15.126;2023-05-23T05:55:30;8.50;;;6.25;;
11927;SDS011;6023;47.070;15.126;2023-05-23T05:57:59;6.90;;;5.93;;
11927;SDS011;6023;47.070;15.126;2023-05-23T06:00:27;8.27;;;5.90;;
11927;SDS011;6023;47.070;15.126;2023-05-23T06:02:57;7.50;;;6.00;;
11927;SDS011;6023;47.070;15.126;2023-05-23T06:05:26;9.25;;;6.82;;
11927;SDS011;6023;47.070;15.126;2023-05-23T06:07:54;7.57;;;6.70;;
11927;SDS011;6023;47.070;15.126;2023-05-23T06:10:23;8.02;;;7.22;;
11927;SDS011;6023;47.070;15.126;2023-05-23T06:12:52;7.28;;;6.40;;
11927;SDS011;6023;47.070;15.126;2023-05-23T06:15:20;8.07;;;6.30;;
11927;SDS011;6023;47.070;15.126;2023-05-23T06:17:49;7.00;;;6.25;;
11927;SDS011;6023;47.070;15.126;2023-05-23T06:20:19;6.72;;;5.78;;
11927;SDS011;6023;47.070;15.126;2023-05-23T06:22:48;8.00;;;6.50;;
11927;SDS011;6023;47.070;15.126;2023-05-23T06:25:16;7.07;;;6.32;;
11927;SDS011;6023;47.070;15.126;2023-05-23T06:27:45;6.95;;;5.80;;
11927;SDS011;6023;47.070;15.126;2023-05-23T06:30:14;7.47;;;5.85;;
11927;SDS011;6023;47.070;15.126;2023-05-23T06:32:42;7.95;;;6.43;;
11927;SDS011;6023;47.070;15.126;2023-05-23T06:35:11;7.63;;;6.13;;
11927;SDS011;6023;47.070;15.126;2023-05-23T06:37:41;7.10;;;6.13;;
11927;SDS011;6023;47.070;15.126;2023-05-23T06:40:11;7.82;;;6.00;;
11927;SDS011;6023;47.070;15.126;2023-05-23T06:42:40;6.72;;;6.03;;
11927;SDS011;6023;47.070;15.126;2023-05-23T06:45:09;6.95;;;5.90;;
11927;SDS011;6023;47.070;15.126;2023-05-23T06:47:41;7.90;;;5.93;;
11927;SDS011;6023;47.070;15.126;2023-05-23T06:50:11;7.05;;;6.35;;
11927;SDS011;6023;47.070;15.126;2023-05-23T06:52:41;7.90;;;6.05;;
11927;SDS011;6023;47.070;15.126;2023-05-23T06:55:09;9.32;;;8.35;;
11927;SDS011;6023;47.070;15.126;2023-05-23T06:57:41;7.93;;;6.72;;
11927;SDS011;6023;47.070;15.126;2023-05-23T07:00:09;8.50;;;6.40;;
11927;SDS011;6023;47.070;15.126;2023-05-23T07:02:39;7.85;;;6.38;;
11927;SDS011;6023;47.070;15.126;2023-05-23T07:05:08;8.45;;;6.55;;
11927;SDS011;6023;47.070;15.126;2023-05-23T07:07:37;7.05;;;6.35;;
11927;SDS011;6023;47.070;15.126;2023-05-23T07:10:07;7.50;;;5.82;;
11927;SDS011;6023;47.070;15.126;2023-05-23T07:12:36;6.38;;;5.72;;
11927;SDS011;6023;47.070;15.126;2023-05-23T07:15:05;7.28;;;5.85;;
11927;SDS011;6023;47.070;15.126;2023-05-23T07:17:35;7.60;;;6.15;;
11927;SDS011;6023;47.070;15.126;2023-05-23T07:20:03;7.43;;;6.13;;
11927;SDS011;6023;47.070;15.126;2023-05-23T07:22:33;6.40;;;5.63;;
11927;SDS011;6023;47.070;15.126;2023-05-23T07:25:01;6.78;;;6.07;;
11927;SDS011;6023;47.070;15.126;2023-05-23T07:27:32;10.70;;;9.60;;
11927;SDS011;6023;47.070;15.126;2023-05-23T07:30:01;10.30;;;9.02;;
11927;SDS011;6023;47.070;15.126;2023-05-23T07:32:30;6.88;;;6.13;;
11927;SDS011;6023;47.070;15.126;2023-05-23T07:34:58;7.75;;;6.00;;
11927;SDS011;6023;47.070;15.126;2023-05-23T07:37:27;6.47;;;5.75;;
11927;SDS011;6023;47.070;15.126;2023-05-23T07:39:55;6.10;;;5.53;;
11927;SDS011;6023;47.070;15.126;2023-05-23T07:42:24;7.55;;;6.05;;
11927;SDS011;6023;47.070;15.126;2023-05-23T07:44:54;6.55;;;5.60;;
11927;SDS011;6023;47.070;15.126;2023-05-23T07:47:22;8.00;;;5.75;;
11927;SDS011;6023;47.070;15.126;2023-05-23T07:49:51;6.75;;;5.55;;
11927;SDS011;6023;47.070;15.126;2023-05-23T07:52:19;7.57;;;5.78;;
11927;SDS011;6023;47.070;15.126;2023-05-23T07:54:48;9.77;;;8.10;;
11927;SDS011;6023;47.070;15.126;2023-05-23T07:57:16;10.50;;;7.80;;
11927;SDS011;6023;47.070;15.126;2023-05-23T07:59:45;9.98;;;8.07;;
11927;SDS011;6023;47.070;15.126;2023-05-23T08:02:14;9.25;;;6.40;;
11927;SDS011;6023;47.070;15.126;2023-05-23T08:04:43;6.45;;;5.43;;
11927;SDS011;6023;47.070;15.126;2023-05-23T08:07:12;10.32;;;6.10;;
11927;SDS011;6023;47.070;15.126;2023-05-23T08:09:44;6.03;;;5.43;;
11927;SDS011;6023;47.070;15.126;2023-05-23T08:12:12;9.15;;;8.25;;
11927;SDS011;6023;47.070;15.126;2023-05-23T08:14:41;7.35;;;6.47;;
11927;SDS011;6023;47.070;15.126;2023-05-23T08:17:19;7.57;;;6.15;;
11927;SDS011;6023;47.070;15.126;2023-05-23T08:19:48;6.65;;;5.93;;
11927;SDS011;6023;47.070;15.126;2023-05-23T08:22:16;6.22;;;5.60;;
11927;SDS011;6023;47.070;15.126;2023-05-23T08:24:45;8.75;;;5.50;;
11927;SDS011;6023;47.070;15.126;2023-05-23T08:27:13;10.48;;;9.38;;
11927;SDS011;6023;47.070;15.126;2023-05-23T08:29:42;7.75;;;6.65;;
11927;SDS011;6023;47.070;15.126;2023-05-23T08:32:10;6.70;;;5.43;;
11927;SDS011;6023;47.070;15.126;2023-05-23T08:34:40;6.15;;;5.55;;
11927;SDS011;6023;47.070;15.126;2023-05-23T08:37:09;6.55;;;5.57;;
11927;SDS011;6023;47.070;15.126;2023-05-23T08:39:38;5.93;;;5.40;;
11927;SDS011;6023;47.070;15.126;2023-05-23T08:42:07;7.43;;;5.80;;
11927;SDS011;6023;47.070;15.126;2023-05-23T08:44:36;7.13;;;6.05;;
11927;SDS011;6023;47.070;15.126;2023-05-23T08:47:06;5.97;;;5.40;;
11927;SDS011;6023;47.070;15.126;2023-05-23T08:49:36;6.20;;;5.60;;
11927;SDS011;6023;47.070;15.126;2023-05-23T08:52:06;7.20;;;5.80;;
11927;SDS011;6023;47.070;15.126;2023-05-23T08:54:39;7.47;;;6.60;;
11927;SDS011;6023;47.070;15.126;2023-05-23T08:57:08;6.20;;;5.50;;
11927;SDS011;6023;47.070;15.126;2023-05-23T08:59:37;6.30;;;5.70;;
11927;SDS011;6023;47.070;15.126;2023-05-23T09:02:06;5.90;;;5.40;;
11927;SDS011;6023;47.070;15.126;2023-05-23T09:04:38;6.07;;;5.47;;
11927;SDS011;6023;47.070;15.126;2023-05-23T09:07:08;7.22;;;6.07;;
11927;SDS011;6023;47.070;15.126;2023-05-23T09:09:37;7.18;;;6.47;;
11927;SDS011;6023;47.070;15.126;2023-05-23T09:12:06;6.95;;;6.22;;
11927;SDS011;6023;47.070;15.126;2023-05-23T09:14:35;10.32;;;7.43;;
11927;SDS011;6023;47.070;15.126;2023-05-23T09:17:04;15.27;;;9.65;;
11927;SDS011;6023;47.070;15.126;2023-05-23T09:19:32;8.88;;;6.80;;
11927;SDS011;6023;47.070;15.126;2023-05-23T09:22:01;8.85;;;6.75;;
11927;SDS011;6023;47.070;15.126;2023-05-23T09:24:35;7.90;;;7.07;;
11927;SDS011;6023;47.070;15.126;2023-05-23T09:27:04;8.57;;;7.10;;
11927;SDS011;6023;47.070;15.126;2023-05-23T09:29:35;8.63;;;6.75;;
11927;SDS011;6023;47.070;15.126;2023-05-23T09:32:14;12.27;;;7.68;;
11927;SDS011;6023;47.070;15.126;2023-05-23T09:34:53;11.07;;;6.70;;
11927;SDS011;6023;47.070;15.126;2023-05-23T09:37:24;7.20;;;6.20;;
11927;SDS011;6023;47.070;15.126;2023-05-23T09:39:59;8.00;;;6.65;;
11927;SDS011;6023;47.070;15.126;2023-05-23T09:42:31;6.70;;;6.10;;
11927;SDS011;6023;47.070;15.126;2023-05-23T09:45:00;7.15;;;6.45;;
11927;SDS011;6023;47.070;15.126;2023-05-23T09:47:30;6.80;;;6.10;;
11927;SDS011;6023;47.070;15.126;2023-05-23T09:49:59;6.78;;;6.10;;
11927;SDS011;6023;47.070;15.126;2023-05-23T09:52:27;7.05;;;6.45;;
11927;SDS011;6023;47.070;15.126;2023-05-23T09:55:04;9.45;;;6.95;;
11927;SDS011;6023;47.070;15.126;2023-05-23T09:57:34;7.38;;;6.47;;
11927;SDS011;6023;47.070;15.126;2023-05-23T10:00:04;8.07;;;6.30;;
11927;SDS011;6023;47.070;15.126;2023-05-23T10:05:37;7.03;;;6.32;;
11927;SDS011;6023;47.070;15.126;2023-05-23T10:08:10;7.43;;;6.60;;
11927;SDS011;6023;47.070;15.126;2023-05-23T10:13:59;9.65;;;6.57;;
11927;SDS011;6023;47.070;15.126;2023-05-23T10:16:31;7.45;;;6.40;;
11927;SDS011;6023;47.070;15.126;2023-05-23T10:19:09;6.88;;;6.18;;
11927;SDS011;6023;47.070;15.126;2023-05-23T10:21:42;6.53;;;5.93;;
11927;SDS011;6023;47.070;15.126;2023-05-23T10:24:12;7.05;;;6.18;;
11927;SDS011;6023;47.070;15.126;2023-05-23T10:26:41;8.30;;;6.70;;
11927;SDS011;6023;47.070;15.126;2023-05-23T10:29:12;8.80;;;6.80;;
11927;SDS011;6023;47.070;15.126;2023-05-23T10:31:40;8.13;;;6.75;;
11927;SDS011;6023;47.070;15.126;2023-05-23T10:34:11;9.38;;;7.32;;
11927;SDS011;6023;47.070;15.126;2023-05-23T10:36:43;9.23;;;7.43;;
11927;SDS011;6023;47.070;15.126;2023-05-23T10:39:18;8.13;;;7.32;;
11927;SDS011;6023;47.070;15.126;2023-05-23T10:41:52;8.07;;;7.25;;
11927;SDS011;6023;47.070;15.126;2023-05-23T10:44:28;10.82;;;6.97;;
11927;SDS011;6023;47.070;15.126;2023-05-23T10:46:57;8.93;;;6.85;;
11927;SDS011;6023;47.070;15.126;2023-05-23T10:49:37;8.40;;;6.72;;
11927;SDS011;6023;47.070;15.126;2023-05-23T10:52:08;7.68;;;6.88;;
11927;SDS011;6023;47.070;15.126;2023-05-23T10:54:41;7.60;;;6.60;;
11927;SDS011;6023;47.070;15.126;2023-05-23T10:57:11;7.82;;;7.03;;
11927;SDS011;6023;47.070;15.126;2023-05-23T10:59:45;7.78;;;6.97;;
11927;SDS011;6023;47.070;15.126;2023-05-23T11:02:14;7.15;;;6.45;;
11927;SDS011;6023;47.070;15.126;2023-05-23T11:04:43;9.10;;;6.68;;
11927;SDS011;6023;47.070;15.126;2023-05-23T11:07:29;7.18;;;6.47;;
11927;SDS011;6023;47.070;15.126;2023-05-23T11:10:02;7.28;;;6.47;;
11927;SDS011;6023;47.070;15.126;2023-05-23T11:12:37;7.10;;;6.40;;
11927;SDS011;6023;47.070;15.126;2023-05-23T11:15:19;6.78;;;6.00;;
11927;SDS011;6023;47.070;15.126;2023-05-23T11:17:49;9.18;;;6.40;;
11927;SDS011;6023;47.070;15.126;2023-05-23T11:20:19;7.45;;;6.47;;
11927;SDS011;6023;47.070;15.126;2023-05-23T11:22:53;8.30;;;6.30;;
11927;SDS011;6023;47.070;15.126;2023-05-23T11:25:38;5.85;;;5.18;;
11927;SDS011;6023;47.070;15.126;2023-05-23T11:28:08;7.28;;;6.07;;
11927;SDS011;6023;47.070;15.126;2023-05-23T11:30:39;6.03;;;5.07;;
11927;SDS011;6023;47.070;15.126;2023-05-23T11:33:08;6.10;;;5.18;;
11927;SDS011;6023;47.070;15.126;2023-05-23T11:35:39;7.55;;;5.25;;
11927;SDS011;6023;47.070;15.126;2023-05-23T11:38:08;7.05;;;5.63;;
11927;SDS011;6023;47.070;15.126;2023-05-23T11:40:37;6.72;;;5.78;;
11927;SDS011;6023;47.070;15.126;2023-05-23T11:43:08;9.95;;;6.78;;
11927;SDS011;6023;47.070;15.126;2023-05-23T11:45:39;7.25;;;5.57;;
11927;SDS011;6023;47.070;15.126;2023-05-23T11:48:08;7.65;;;5.47;;
11927;SDS011;6023;47.070;15.126;2023-05-23T11:50:44;6.82;;;5.40;;
11927;SDS011;6023;47.070;15.126;2023-05-23T11:53:14;7.65;;;5.80;;
11927;SDS011;6023;47.070;15.126;2023-05-23T11:55:49;6.63;;;6.03;;
11927;SDS011;6023;47.070;15.126;2023-05-23T11:58:20;7.82;;;6.55;;
11927;SDS011;6023;47.070;15.126;2023-05-23T12:00:50;6.90;;;6.20;;
11927;SDS011;6023;47.070;15.126;2023-05-23T12:03:21;7.90;;;5.90;;
11927;SDS011;6023;47.070;15.126;2023-05-23T12:05:49;7.68;;;6.70;;
11927;SDS011;6023;47.070;15.126;2023-05-23T12:08:18;7.73;;;5.73;;
11927;SDS011;6023;47.070;15.126;2023-05-23T12:10:50;6.57;;;5.70;;
11927;SDS011;6023;47.070;15.126;2023-05-23T12:13:22;6.93;;;6.13;;
11927;SDS011;6023;47.070;15.126;2023-05-23T12:15:56;5.87;;;5.27;;
11927;SDS011;6023;47.070;15.126;2023-05-23T12:18:26;8.67;;;6.20;;
11927;SDS011;6023;47.070;15.126;2023-05-23T12:20:58;7.00;;;6.30;;
11927;SDS011;6023;47.070;15.126;2023-05-23T12:23:27;8.83;;;6.67;;
11927;SDS011;6023;47.070;15.126;2023-05-23T12:26:00;7.33;;;6.10;;
11927;SDS011;6023;47.070;15.126;2023-05-23T12:28:35;6.97;;;5.97;;
11927;SDS011;6023;47.070;15.126;2023-05-23T12:31:10;7.73;;;6.63;;
11927;SDS011;6023;47.070;15.126;2023-05-23T12:33:39;7.57;;;6.77;;
11927;SDS011;6023;47.070;15.126;2023-05-23T12:36:09;8.67;;;6.50;;
11927;SDS011;6023;47.070;15.126;2023-05-23T12:38:38;8.43;;;6.00;;
11927;SDS011;6023;47.070;15.126;2023-05-23T12:41:11;7.17;;;6.00;;
11927;SDS011;6023;47.070;15.126;2023-05-23T12:43:40;8.67;;;6.33;;
11927;SDS011;6023;47.070;15.126;2023-05-23T12:46:17;8.53;;;6.33;;
11927;SDS011;6023;47.070;15.126;2023-05-23T12:48:46;6.77;;;5.90;;
11927;SDS011;6023;47.070;15.126;2023-05-23T12:51:14;8.97;;;6.40;;
11927;SDS011;6023;47.070;15.126;2023-05-23T12:53:43;7.63;;;6.33;;
11927;SDS011;6023;47.070;15.126;2023-05-23T12:56:11;13.43;;;11.67;;
11927;SDS011;6023;47.070;15.126;2023-05-23T12:58:40;11.80;;;10.60;;
11927;SDS011;6023;47.070;15.126;2023-05-23T13:01:09;10.13;;;7.60;;
11927;SDS011;6023;47.070;15.126;2023-05-23T13:03:39;7.80;;;6.70;;
11927;SDS011;6023;47.070;15.126;2023-05-23T13:06:08;7.77;;;6.97;;
11927;SDS011;6023;47.070;15.126;2023-05-23T13:08:37;9.47;;;6.77;;
11927;SDS011;6023;47.070;15.126;2023-05-23T13:11:05;7.00;;;6.27;;
11927;SDS011;6023;47.070;15.126;2023-05-23T13:13:34;8.90;;;6.37;;
11927;SDS011;6023;47.070;15.126;2023-05-23T13:16:03;9.27;;;6.57;;
11927;SDS011;6023;47.070;15.126;2023-05-23T13:18:31;10.17;;;7.33;;
11927;SDS011;6023;47.070;15.126;2023-05-23T13:21:01;8.93;;;7.07;;
11927;SDS011;6023;47.070;15.126;2023-05-23T13:23:30;7.70;;;6.80;;
11927;SDS011;6023;47.070;15.126;2023-05-23T13:25:59;9.33;;;7.53;;
11927;SDS011;6023;47.070;15.126;2023-05-23T13:28:28;9.37;;;7.57;;
11927;SDS011;6023;47.070;15.126;2023-05-23T13:30:56;9.63;;;7.30;;
11927;SDS011;6023;47.070;15.126;2023-05-23T13:33:25;7.50;;;6.80;;
11927;SDS011;6023;47.070;15.126;2023-05-23T13:35:54;10.13;;;7.70;;
11927;SDS011;6023;47.070;15.126;2023-05-23T13:38:24;9.83;;;7.63;;
11927;SDS011;6023;47.070;15.126;2023-05-23T13:40:53;9.23;;;7.03;;
11927;SDS011;6023;47.070;15.126;2023-05-23T13:43:22;7.00;;;6.30;;
11927;SDS011;6023;47.070;15.126;2023-05-23T13:45:50;8.20;;;7.30;;
11927;SDS011;6023;47.070;15.126;2023-05-23T13:48:19;7.73;;;7.00;;
11927;SDS011;6023;47.070;15.126;2023-05-23T13:50:47;8.50;;;7.63;;
11927;SDS011;6023;47.070;15.126;2023-05-23T13:53:16;9.57;;;7.20;;
11927;SDS011;6023;47.070;15.126;2023-05-23T13:55:49;7.77;;;6.90;;
11927;SDS011;6023;47.070;15.126;2023-05-23T13:58:18;8.17;;;7.37;;
11927;SDS011;6023;47.070;15.126;2023-05-23T14:00:48;7.43;;;6.40;;
11927;SDS011;6023;47.070;15.126;2023-05-23T14:03:19;7.20;;;6.23;;
11927;SDS011;6023;47.070;15.126;2023-05-23T14:05:48;8.73;;;6.67;;
11927;SDS011;6023;47.070;15.126;2023-05-23T14:08:16;8.03;;;7.23;;
11927;SDS011;6023;47.070;15.126;2023-05-23T14:10:45;8.17;;;7.30;;
11927;SDS011;6023;47.070;15.126;2023-05-23T14:13:15;9.30;;;7.30;;
11927;SDS011;6023;47.070;15.126;2023-05-23T14:15:45;8.60;;;7.30;;
11927;SDS011;6023;47.070;15.126;2023-05-23T14:18:15;9.73;;;7.40;;
11927;SDS011;6023;47.070;15.126;2023-05-23T14:20:43;8.87;;;7.67;;
11927;SDS011;6023;47.070;15.126;2023-05-23T14:23:12;9.20;;;7.17;;
11927;SDS011;6023;47.070;15.126;2023-05-23T14:25:40;8.10;;;7.00;;
11927;SDS011;6023;47.070;15.126;2023-05-23T14:28:09;7.77;;;6.97;;
11927;SDS011;6023;47.070;15.126;2023-05-23T14:30:39;8.17;;;6.73;;
11927;SDS011;6023;47.070;15.126;2023-05-23T14:33:08;9.07;;;6.77;;
11927;SDS011;6023;47.070;15.126;2023-05-23T14:35:37;8.27;;;6.90;;
11927;SDS011;6023;47.070;15.126;2023-05-23T14:38:06;7.63;;;6.87;;
11927;SDS011;6023;47.070;15.126;2023-05-23T14:40:34;7.63;;;6.73;;
11927;SDS011;6023;47.070;15.126;2023-05-23T14:43:03;10.37;;;7.67;;
11927;SDS011;6023;47.070;15.126;2023-05-23T14:45:31;13.00;;;10.90;;
11927;SDS011;6023;47.070;15.126;2023-05-23T14:48:01;11.67;;;10.10;;
11927;SDS011;6023;47.070;15.126;2023-05-23T14:50:31;12.90;;;9.50;;
11927;SDS011;6023;47.070;15.126;2023-05-23T14:53:00;10.80;;;9.80;;
11927;SDS011;6023;47.070;15.126;2023-05-23T14:55:28;11.10;;;9.00;;
11927;SDS011;6023;47.070;15.126;2023-05-23T14:57:57;9.77;;;8.87;;
11927;SDS011;6023;47.070;15.126;2023-05-23T15:00:25;12.03;;;8.97;;
11927;SDS011;6023;47.070;15.126;2023-05-23T15:02:54;10.83;;;8.97;;
11927;SDS011;6023;47.070;15.126;2023-05-23T15:05:24;12.27;;;9.10;;
11927;SDS011;6023;47.070;15.126;2023-05-23T15:07:52;8.40;;;6.93;;
11927;SDS011;6023;47.070;15.126;2023-05-23T15:10:22;7.87;;;6.60;;